createdAt,value
2018-04-14T00:01:17.331Z,100.00
2018-04-14T00:03:44.897Z,100.00
2018-04-14T00:06:13.113Z,100.00
2018-04-14T00:08:40.653Z,100.00
2018-04-14T00:11:08.209Z,100.00
2018-04-14T00:13:35.803Z,100.00
2018-04-14T00:16:03.396Z,100.00
2018-04-14T00:18:30.947Z,100.00
2018-04-14T00:20:59.064Z,100.00
2018-04-14T00:23:26.615Z,100.00
2018-04-14T00:25:54.413Z,100.00
2018-04-14T00:28:21.985Z,100.00
2018-04-14T00:30:49.534Z,100.00
2018-04-14T00:33:17.235Z,100.00
2018-04-14T00:35:45.014Z,100.00
2018-04-14T00:38:12.995Z,100.00
2018-04-14T00:40:40.565Z,100.00
2018-04-14T00:43:08.101Z,100.00
2018-04-14T00:45:35.687Z,100.00
2018-04-14T00:48:03.392Z,100.00
2018-04-14T00:50:30.994Z,100.00
2018-04-14T00:53:10.312Z,100.00
2018-04-14T00:55:38.028Z,100.00
2018-04-14T00:58:05.585Z,100.00
2018-04-14T01:00:33.134Z,100.00
2018-04-14T01:03:00.759Z,100.00
2018-04-14T01:05:28.316Z,100.00
2018-04-14T01:07:55.857Z,100.00
2018-04-14T01:10:23.507Z,100.00
2018-04-14T01:12:51.054Z,100.00
2018-04-14T01:15:18.724Z,100.00
2018-04-14T01:17:46.458Z,100.00
2018-04-14T01:20:14.025Z,100.00
2018-04-14T01:22:41.758Z,100.00
2018-04-14T01:25:09.585Z,100.00
2018-04-14T01:27:37.132Z,100.00
2018-04-14T01:30:05.057Z,100.00
2018-04-14T01:32:32.610Z,100.00
2018-04-14T01:35:00.306Z,100.00
2018-04-14T01:37:27.965Z,100.00
2018-04-14T01:39:55.531Z,100.00
2018-04-14T01:42:23.131Z,100.00
2018-04-14T01:44:50.683Z,100.00
2018-04-14T01:47:18.248Z,100.00
2018-04-14T01:49:46.166Z,100.00
2018-04-14T01:52:13.709Z,100.00
2018-04-14T01:54:41.249Z,100.00
2018-04-14T01:57:08.970Z,100.00
2018-04-14T01:59:36.527Z,100.00
2018-04-14T02:02:04.159Z,100.00
2018-04-14T02:04:31.987Z,100.00
2018-04-14T02:06:59.548Z,100.00
2018-04-14T02:09:27.166Z,100.00
2018-04-14T02:11:54.718Z,100.00
2018-04-14T02:14:22.274Z,100.00
2018-04-14T02:16:50.395Z,100.00
2018-04-14T02:19:17.937Z,100.00
2018-04-14T02:21:45.612Z,100.00
2018-04-14T02:24:13.209Z,100.00
2018-04-14T02:26:40.963Z,100.00
2018-04-14T02:29:08.740Z,100.00
2018-04-14T02:31:36.469Z,100.00
2018-04-14T02:34:04.025Z,100.00
2018-04-14T02:36:31.583Z,100.00
2018-04-14T02:38:59.357Z,100.00
2018-04-14T02:41:26.913Z,100.00
2018-04-14T02:43:54.692Z,100.00
2018-04-14T02:46:22.444Z,100.00
2018-04-14T02:48:50.144Z,100.00
2018-04-14T02:51:17.814Z,100.00
2018-04-14T02:53:45.670Z,100.00
2018-04-14T02:56:13.228Z,100.00
2018-04-14T02:58:40.789Z,100.00
2018-04-14T03:01:08.750Z,100.00
2018-04-14T03:03:36.487Z,100.00
2018-04-14T03:06:04.043Z,100.00
2018-04-14T03:08:32.082Z,100.00
2018-04-14T03:10:59.836Z,100.00
2018-04-14T03:13:27.377Z,100.00
2018-04-14T03:15:55.088Z,100.00
2018-04-14T03:18:22.654Z,100.00
2018-04-14T03:20:50.849Z,100.00
2018-04-14T03:23:18.524Z,100.00
2018-04-14T03:25:46.093Z,100.00
2018-04-14T03:28:13.670Z,100.00
2018-04-14T03:30:41.205Z,100.00
2018-04-14T03:33:08.933Z,100.00
2018-04-14T03:35:36.478Z,100.00
2018-04-14T03:38:04.022Z,100.00
2018-04-14T03:40:31.590Z,100.00
2018-04-14T03:42:59.419Z,100.00
2018-04-14T03:45:27.130Z,100.00
2018-04-14T03:47:54.870Z,100.00
2018-04-14T03:50:22.418Z,100.00
2018-04-14T03:52:49.986Z,100.00
2018-04-14T03:55:17.727Z,100.00
2018-04-14T03:57:45.472Z,100.00
2018-04-14T04:00:13.016Z,100.00
2018-04-14T04:02:40.586Z,100.00
2018-04-14T04:05:08.166Z,100.00
2018-04-14T04:07:35.746Z,100.00
2018-04-14T04:10:03.304Z,100.00
2018-04-14T04:12:30.894Z,100.00
2018-04-14T04:14:58.643Z,100.00
2018-04-14T04:17:26.185Z,100.00
2018-04-14T04:20:05.815Z,100.00
2018-04-14T04:22:45.476Z,100.00
2018-04-14T04:25:24.652Z,100.00
2018-04-14T04:27:52.429Z,100.00
2018-04-14T04:30:19.973Z,100.00
2018-04-14T04:32:47.646Z,100.00
2018-04-14T04:35:15.251Z,100.00
2018-04-14T04:37:42.793Z,100.00
2018-04-14T04:40:10.337Z,100.00
2018-04-14T04:42:38.248Z,100.00
2018-04-14T04:45:05.800Z,100.00
2018-04-14T04:47:33.341Z,100.00
2018-04-14T04:50:00.922Z,100.00
2018-04-14T04:52:28.494Z,100.00
2018-04-14T04:54:56.306Z,100.00
2018-04-14T04:57:23.991Z,100.00
2018-04-14T04:59:51.973Z,100.00
2018-04-14T05:02:19.530Z,100.00
2018-04-14T05:04:47.091Z,100.00
2018-04-14T05:07:14.794Z,100.00
2018-04-14T05:09:42.534Z,100.00
2018-04-14T05:12:10.112Z,100.00
2018-04-14T05:14:37.672Z,100.00
2018-04-14T05:17:05.556Z,100.00
2018-04-14T05:19:33.110Z,100.00
2018-04-14T05:22:00.849Z,100.00
2018-04-14T05:24:28.462Z,100.00
2018-04-14T05:26:56.002Z,100.00
2018-04-14T05:29:23.570Z,100.00
2018-04-14T05:31:51.147Z,100.00
2018-04-14T05:34:18.689Z,100.00
2018-04-14T05:36:46.494Z,100.00
2018-04-14T05:39:14.061Z,100.00
2018-04-14T05:41:42.777Z,100.00
2018-04-14T05:44:10.541Z,100.00
2018-04-14T05:46:38.112Z,100.00
2018-04-14T05:49:05.814Z,100.00
2018-04-14T05:51:33.391Z,100.00
2018-04-14T05:54:00.947Z,100.00
2018-04-14T05:56:28.539Z,100.00
2018-04-14T05:58:56.137Z,100.00
2018-04-14T06:01:23.686Z,100.00
2018-04-14T06:03:51.239Z,100.00
2018-04-14T06:06:18.819Z,100.00
2018-04-14T06:08:46.369Z,100.00
2018-04-14T06:11:14.055Z,100.00
2018-04-14T06:13:41.597Z,100.00
2018-04-14T06:16:09.303Z,100.00
2018-04-14T06:18:37.077Z,100.00
2018-04-14T06:21:04.959Z,100.00
2018-04-14T06:23:32.525Z,100.00
2018-04-14T06:26:00.079Z,100.00
2018-04-14T06:28:28.025Z,100.00
2018-04-14T06:30:55.594Z,100.00
2018-04-14T06:33:23.159Z,100.00
2018-04-14T06:35:50.740Z,100.00
2018-04-14T06:38:18.485Z,100.00
2018-04-14T06:40:46.046Z,100.00
2018-04-14T06:43:13.835Z,100.00
2018-04-14T06:45:41.419Z,100.00
2018-04-14T06:48:09.002Z,100.00
2018-04-14T06:50:36.549Z,100.00
2018-04-14T06:53:04.250Z,100.00
2018-04-14T06:55:31.905Z,100.00
2018-04-14T06:57:59.449Z,100.00
2018-04-14T07:00:27.039Z,100.00
2018-04-14T07:02:54.596Z,100.00
2018-04-14T07:05:22.260Z,100.00
2018-04-14T07:07:49.821Z,100.00
2018-04-14T07:10:17.382Z,100.00
2018-04-14T07:12:45.121Z,100.00
2018-04-14T07:15:12.732Z,100.00
2018-04-14T07:17:40.276Z,100.00
2018-04-14T07:20:07.939Z,100.00
2018-04-14T07:22:35.551Z,100.00
2018-04-14T07:25:03.190Z,100.00
2018-04-14T07:27:30.742Z,100.00
2018-04-14T07:29:58.544Z,100.00
2018-04-14T07:32:26.129Z,100.00
2018-04-14T07:34:53.723Z,100.00
2018-04-14T07:37:21.308Z,100.00
2018-04-14T07:39:48.874Z,100.00
2018-04-14T07:42:16.444Z,100.00
2018-04-14T07:44:43.984Z,100.00
2018-04-14T07:47:11.581Z,100.00
2018-04-14T07:49:39.125Z,100.00
2018-04-14T07:52:06.800Z,100.00
2018-04-14T07:54:34.370Z,100.00
2018-04-14T07:57:01.918Z,100.00
2018-04-14T07:59:29.512Z,100.00
2018-04-14T08:01:57.231Z,100.00
2018-04-14T08:04:24.788Z,100.00
2018-04-14T08:06:52.343Z,100.00
2018-04-14T08:09:20.196Z,100.00
2018-04-14T08:11:48.011Z,100.00
2018-04-14T08:14:15.612Z,100.00
2018-04-14T08:16:43.388Z,100.00
2018-04-14T08:19:10.934Z,100.00
2018-04-14T08:21:38.709Z,100.00
2018-04-14T08:24:06.618Z,100.00
2018-04-14T08:26:34.175Z,100.00
2018-04-14T08:29:01.709Z,100.00
2018-04-14T08:31:29.286Z,100.00
2018-04-14T08:33:56.872Z,100.00
2018-04-14T08:36:24.417Z,100.00
2018-04-14T08:38:51.989Z,100.00
2018-04-14T08:41:19.809Z,100.00
2018-04-14T08:43:47.586Z,100.00
2018-04-14T08:46:15.134Z,100.00
2018-04-14T08:48:42.704Z,100.00
2018-04-14T08:51:10.270Z,100.00
2018-04-14T08:53:38.083Z,100.00
2018-04-14T08:56:05.655Z,100.00
2018-04-14T08:58:33.232Z,100.00
2018-04-14T09:01:00.927Z,100.00
2018-04-14T09:03:28.473Z,100.00
2018-04-14T09:05:56.028Z,100.00
2018-04-14T09:08:23.597Z,100.00
2018-04-14T09:10:51.145Z,100.00
2018-04-14T09:13:18.979Z,99.05
2018-04-14T09:15:46.554Z,99.65
2018-04-14T09:18:14.169Z,100.00
2018-04-14T09:20:42.001Z,97.17
2018-04-14T09:23:09.678Z,98.42
2018-04-14T09:25:37.453Z,97.57
2018-04-14T09:28:05.037Z,98.24
2018-04-14T09:30:32.657Z,98.53
2018-04-14T09:33:00.206Z,99.75
2018-04-14T09:35:27.945Z,98.81
2018-04-14T09:37:55.923Z,98.52
2018-04-14T09:40:23.518Z,99.71
2018-04-14T09:42:51.187Z,99.54
2018-04-14T09:45:18.915Z,99.39
2018-04-14T09:47:46.476Z,99.20
2018-04-14T09:50:14.072Z,98.93
2018-04-14T09:52:41.803Z,97.92
2018-04-14T09:55:09.343Z,97.03
2018-04-14T09:57:36.882Z,97.34
2018-04-14T10:00:04.463Z,96.60
2018-04-14T10:02:37.577Z,95.31
2018-04-14T10:05:05.298Z,97.23
2018-04-14T10:07:32.899Z,94.86
2018-04-14T10:10:00.461Z,93.00
2018-04-14T10:12:28.365Z,91.76
2018-04-14T10:14:56.090Z,88.05
2018-04-14T10:17:23.635Z,91.31
2018-04-14T10:19:51.221Z,88.63
2018-04-14T10:22:18.752Z,85.51
2018-04-14T10:24:46.484Z,81.50
2018-04-14T10:27:14.259Z,80.11
2018-04-14T10:29:41.806Z,79.12
2018-04-14T10:32:09.509Z,78.02
2018-04-14T10:34:37.070Z,75.93
2018-04-14T10:37:04.629Z,81.10
2018-04-14T10:39:32.160Z,79.94
2018-04-14T10:41:59.948Z,79.54
2018-04-14T10:44:27.574Z,78.12
2018-04-14T10:46:55.113Z,80.84
2018-04-14T10:49:22.684Z,80.92
2018-04-14T10:51:50.247Z,82.47
2018-04-14T10:54:17.854Z,84.08
2018-04-14T10:56:45.412Z,81.91
2018-04-14T10:59:12.963Z,85.14
2018-04-14T11:01:40.927Z,84.81
2018-04-14T11:04:08.577Z,85.54
2018-04-14T11:06:36.145Z,84.20
2018-04-14T11:09:03.756Z,85.34
2018-04-14T11:11:31.310Z,85.61
2018-04-14T11:13:58.874Z,82.42
2018-04-14T11:16:26.418Z,84.75
2018-04-14T11:18:54.428Z,81.31
2018-04-14T11:21:21.973Z,80.82
2018-04-14T11:23:49.782Z,83.51
2018-04-14T11:26:17.342Z,81.94
2018-04-14T11:28:44.902Z,83.58
2018-04-14T11:31:12.849Z,83.12
2018-04-14T11:33:40.398Z,83.53
2018-04-14T11:36:08.184Z,85.23
2018-04-14T11:38:35.723Z,84.24
2018-04-14T11:41:03.398Z,82.05
2018-04-14T11:43:31.086Z,84.91
2018-04-14T11:45:58.648Z,85.26
2018-04-14T11:48:26.190Z,82.33
2018-04-14T11:50:53.833Z,82.92
2018-04-14T11:53:21.362Z,81.94
2018-04-14T11:55:49.110Z,80.39
2018-04-14T11:58:16.687Z,76.92
2018-04-14T12:00:44.505Z,79.61
2018-04-14T12:03:12.280Z,80.80
2018-04-14T12:05:40.059Z,78.83
2018-04-14T12:08:07.640Z,81.38
2018-04-14T12:10:35.190Z,81.30
2018-04-14T12:13:03.394Z,84.20
2018-04-14T12:15:31.064Z,83.25
2018-04-14T12:17:58.745Z,82.31
2018-04-14T12:20:26.359Z,84.89
2018-04-14T12:22:53.931Z,84.75
2018-04-14T12:25:21.669Z,86.18
2018-04-14T12:27:49.471Z,82.42
2018-04-14T12:30:17.028Z,80.70
2018-04-14T12:32:44.571Z,83.45
2018-04-14T12:35:12.138Z,83.71
2018-04-14T12:37:39.689Z,80.30
2018-04-14T12:40:07.249Z,82.49
2018-04-14T12:42:34.816Z,80.53
2018-04-14T12:45:02.454Z,81.75
2018-04-14T12:47:30.007Z,83.44
2018-04-14T12:49:57.613Z,83.34
2018-04-14T12:52:25.192Z,81.58
2018-04-14T12:54:52.758Z,81.34
2018-04-14T12:57:20.421Z,82.53
2018-04-14T12:59:47.979Z,77.62
2018-04-14T13:02:15.676Z,76.51
2018-04-14T13:04:43.612Z,79.06
2018-04-14T13:07:11.180Z,77.44
2018-04-14T13:09:38.731Z,79.12
2018-04-14T13:12:06.481Z,81.24
2018-04-14T13:14:34.078Z,81.38
2018-04-14T13:17:01.732Z,81.89
2018-04-14T13:19:29.312Z,81.04
2018-04-14T13:21:56.868Z,79.58
2018-04-14T13:24:24.430Z,78.85
2018-04-14T13:26:52.002Z,79.67
2018-04-14T13:29:19.542Z,79.78
2018-04-14T13:31:48.630Z,78.26
2018-04-14T13:34:16.203Z,76.59
2018-04-14T13:36:43.755Z,78.17
2018-04-14T13:39:11.371Z,75.58
2018-04-14T13:41:38.909Z,74.58
2018-04-14T13:44:06.462Z,77.67
2018-04-14T13:46:34.189Z,76.77
2018-04-14T13:49:01.795Z,78.17
2018-04-14T13:51:29.354Z,79.70
2018-04-14T13:53:56.907Z,79.09
2018-04-14T13:56:24.486Z,79.03
2018-04-14T13:58:52.036Z,78.43
2018-04-14T14:01:19.787Z,77.70
2018-04-14T14:03:47.459Z,79.37
2018-04-14T14:06:15.042Z,78.60
2018-04-14T14:46:51.184Z,75.74
2018-04-14T14:49:18.780Z,73.98
2018-04-14T14:51:46.321Z,70.58
2018-04-14T14:54:14.047Z,72.41
2018-04-14T14:56:41.669Z,74.73
2018-04-14T14:59:09.294Z,72.78
2018-04-14T15:01:36.823Z,71.37
2018-04-14T15:04:04.406Z,68.66
2018-04-14T15:06:32.222Z,70.01
2018-04-14T15:08:59.761Z,70.07
2018-04-14T15:11:27.572Z,70.38
2018-04-14T15:13:55.179Z,72.33
2018-04-14T15:16:22.739Z,71.42
2018-04-14T15:18:50.278Z,73.50
2018-04-14T15:21:17.965Z,71.24
2018-04-14T15:23:45.515Z,69.99
2018-04-14T15:26:13.317Z,72.10
2018-04-14T15:28:41.313Z,70.89
2018-04-14T15:31:08.859Z,68.97
2018-04-14T15:33:36.400Z,71.04
2018-04-14T15:36:04.000Z,66.78
2018-04-14T15:38:31.719Z,67.37
2018-04-14T15:40:59.258Z,66.69
2018-04-14T15:43:26.807Z,70.57
2018-04-14T15:45:54.618Z,69.30
2018-04-14T15:48:22.169Z,68.44
2018-04-14T15:50:49.726Z,69.47
2018-04-14T15:53:17.850Z,68.32
2018-04-14T15:55:45.384Z,65.54
2018-04-14T15:58:12.926Z,69.13
2018-04-14T16:00:40.494Z,67.04
2018-04-14T16:03:08.054Z,69.29
2018-04-14T16:05:35.738Z,67.09
2018-04-14T16:08:03.492Z,67.57
2018-04-14T16:10:31.273Z,69.81
2018-04-14T16:12:58.963Z,69.96
2018-04-14T16:15:26.577Z,69.20
2018-04-14T16:17:54.125Z,68.99
2018-04-14T16:20:21.743Z,68.66
2018-04-14T16:22:49.290Z,71.58
2018-04-14T16:25:16.849Z,71.15
2018-04-14T16:27:44.745Z,70.03
2018-04-14T16:30:12.290Z,66.13
2018-04-14T16:32:40.048Z,68.81
2018-04-14T16:35:07.687Z,69.36
2018-04-14T16:37:35.235Z,72.60
2018-04-14T16:40:02.809Z,71.76
2018-04-14T16:42:30.445Z,69.06
2018-04-14T16:44:58.183Z,68.23
2018-04-14T16:47:25.736Z,68.40
2018-04-14T16:49:53.417Z,68.98
2018-04-14T16:52:20.961Z,70.04
2018-04-14T16:54:48.494Z,70.77
2018-04-14T16:57:16.073Z,71.35
2018-04-14T16:59:43.626Z,71.89
2018-04-14T17:02:11.193Z,72.28
2018-04-14T17:04:38.738Z,71.92
2018-04-14T17:07:06.484Z,71.45
2018-04-14T17:09:34.237Z,71.63
2018-04-14T17:12:01.930Z,71.61
2018-04-14T17:14:29.474Z,73.77
2018-04-14T17:16:57.398Z,71.89
2018-04-14T17:19:25.064Z,73.21
2018-04-14T17:21:52.606Z,72.32
2018-04-14T17:24:20.416Z,72.70
2018-04-14T17:26:47.953Z,72.80
2018-04-14T17:29:15.518Z,72.94
2018-04-14T17:31:43.052Z,73.41
2018-04-14T17:34:10.631Z,73.23
2018-04-14T17:36:38.387Z,73.35
2018-04-14T17:39:06.893Z,74.25
2018-04-14T17:41:34.447Z,73.56
2018-04-14T17:44:02.233Z,74.91
2018-04-14T17:46:29.775Z,75.27
2018-04-14T17:48:57.358Z,75.92
2018-04-14T17:51:24.927Z,76.06
2018-04-14T17:53:52.498Z,76.76
2018-04-14T17:56:20.324Z,78.03
2018-04-14T17:58:47.898Z,78.89
2018-04-14T18:01:15.479Z,79.04
2018-04-14T18:03:43.434Z,79.71
2018-04-14T18:06:10.983Z,81.08
2018-04-14T18:08:38.575Z,80.84
2018-04-14T18:11:06.164Z,80.32
2018-04-14T18:13:33.826Z,81.23
2018-04-14T18:16:01.368Z,81.70
2018-04-14T18:18:28.930Z,82.48
2018-04-14T18:20:56.488Z,83.32
2018-04-14T18:23:24.045Z,84.21
2018-04-14T18:25:51.590Z,85.54
2018-04-14T18:28:19.266Z,85.84
2018-04-14T18:30:46.815Z,86.44
2018-04-14T18:33:14.756Z,85.78
2018-04-14T18:35:42.498Z,87.41
2018-04-14T18:38:10.042Z,89.19
2018-04-14T18:40:37.713Z,90.28
2018-04-14T18:43:05.262Z,91.75
2018-04-14T18:45:32.900Z,92.77
2018-04-14T18:48:00.457Z,93.18
2018-04-14T18:50:28.007Z,93.78
2018-04-14T18:52:55.560Z,94.40
2018-04-14T18:55:23.493Z,94.70
2018-04-14T18:57:51.025Z,93.72
2018-04-14T19:00:18.575Z,92.29
2018-04-14T19:02:46.177Z,91.69
2018-04-14T19:05:13.940Z,93.55
2018-04-14T19:07:41.563Z,93.37
2018-04-14T19:10:09.205Z,93.32
2018-04-14T19:12:36.774Z,94.77
2018-04-14T19:15:04.361Z,95.56
2018-04-14T19:17:31.937Z,95.83
2018-04-14T19:19:59.691Z,95.89
2018-04-14T19:22:27.390Z,96.72
2018-04-14T19:24:55.150Z,96.62
2018-04-14T19:27:22.916Z,96.12
2018-04-14T19:29:50.454Z,96.32
2018-04-14T19:32:17.995Z,96.29
2018-04-14T19:34:45.586Z,96.13
2018-04-14T19:37:13.368Z,96.56
2018-04-14T19:39:40.935Z,97.19
2018-04-14T19:42:08.525Z,97.65
2018-04-14T19:44:36.068Z,97.81
2018-04-14T19:47:03.597Z,97.86
2018-04-14T19:49:31.345Z,97.84
2018-04-14T19:51:58.885Z,98.14
2018-04-14T19:54:26.468Z,98.16
2018-04-14T19:56:54.177Z,98.37
2018-04-14T19:59:21.718Z,98.34
2018-04-14T20:01:49.262Z,97.37
2018-04-14T20:04:16.830Z,97.95
2018-04-14T20:06:44.631Z,98.07
2018-04-14T20:09:12.435Z,97.17
2018-04-14T20:11:40.030Z,95.88
2018-04-14T20:14:07.618Z,95.96
2018-04-14T20:16:35.160Z,97.07
2018-04-14T20:19:02.897Z,97.74
2018-04-14T20:21:30.433Z,98.09
2018-04-14T20:23:57.985Z,98.37
2018-04-14T20:26:25.555Z,98.59
2018-04-14T20:28:53.113Z,98.33
2018-04-14T20:31:20.815Z,98.56
2018-04-14T20:33:48.347Z,98.90
2018-04-14T20:36:15.887Z,98.16
2018-04-14T20:38:43.450Z,97.30
2018-04-14T20:41:11.048Z,97.05
2018-04-14T20:43:38.785Z,97.95
2018-04-14T20:46:06.321Z,98.27
2018-04-14T20:48:33.862Z,98.62
2018-04-14T20:51:01.467Z,98.96
2018-04-14T20:53:29.265Z,99.48
2018-04-14T20:55:56.810Z,99.67
2018-04-14T20:58:24.376Z,99.75
2018-04-14T21:00:51.936Z,98.72
2018-04-14T21:03:19.506Z,99.59
2018-04-14T21:05:47.042Z,100.00
2018-04-14T21:08:14.965Z,100.00
2018-04-14T21:10:42.509Z,100.00
2018-04-14T21:13:10.153Z,100.00
2018-04-14T21:15:37.850Z,100.00
2018-04-14T21:18:05.393Z,100.00
2018-04-14T21:20:32.934Z,100.00
2018-04-14T21:23:00.524Z,99.90
2018-04-14T21:25:28.071Z,99.57
2018-04-14T21:27:55.688Z,100.00
2018-04-14T21:30:23.234Z,99.96
2018-04-14T21:32:50.778Z,99.98
2018-04-14T21:35:18.515Z,100.00
2018-04-14T21:37:46.086Z,100.00
2018-04-14T21:40:14.480Z,100.00
2018-04-14T21:42:42.085Z,100.00
2018-04-14T21:45:09.804Z,100.00
2018-04-14T21:47:37.359Z,100.00
2018-04-14T21:50:04.944Z,100.00
2018-04-14T21:52:32.540Z,100.00
2018-04-14T21:55:00.227Z,100.00
2018-04-14T21:57:27.765Z,100.00
2018-04-14T21:59:55.356Z,100.00
2018-04-14T22:02:22.911Z,100.00
2018-04-14T22:04:50.526Z,100.00
2018-04-14T22:07:18.328Z,100.00
2018-04-14T22:09:45.867Z,100.00
2018-04-14T22:12:13.417Z,100.00
2018-04-14T22:14:40.987Z,100.00
2018-04-14T22:17:08.543Z,100.00
2018-04-14T22:19:36.133Z,100.00
2018-04-14T22:22:03.946Z,100.00
2018-04-14T22:24:31.485Z,100.00
2018-04-14T22:26:59.036Z,100.00
2018-04-14T22:29:26.605Z,100.00
2018-04-14T22:31:54.248Z,100.00
2018-04-14T22:34:22.090Z,100.00
2018-04-14T22:36:49.653Z,100.00
2018-04-14T22:39:17.197Z,100.00
2018-04-14T22:41:45.158Z,100.00
2018-04-14T22:44:12.722Z,100.00
2018-04-14T22:46:40.451Z,100.00
2018-04-14T22:49:08.280Z,100.00
2018-04-14T22:51:35.840Z,100.00
2018-04-14T22:54:03.467Z,100.00
2018-04-14T22:56:31.002Z,100.00
2018-04-14T22:58:58.541Z,99.29
2018-04-14T23:01:26.175Z,100.00
2018-04-14T23:03:53.735Z,100.00
2018-04-14T23:06:21.290Z,100.00
2018-04-14T23:08:48.894Z,99.59
2018-04-14T23:11:16.753Z,99.42
2018-04-14T23:13:44.541Z,99.79
2018-04-14T23:16:12.089Z,99.96
2018-04-14T23:18:39.776Z,99.47
2018-04-14T23:21:07.314Z,99.46
2018-04-14T23:23:34.882Z,99.77
2018-04-14T23:26:02.430Z,99.33
2018-04-14T23:28:30.270Z,99.39
2018-04-14T23:30:57.925Z,99.68
2018-04-14T23:33:25.610Z,100.00
2018-04-14T23:35:53.148Z,99.94
2018-04-14T23:38:20.867Z,98.41
2018-04-14T23:40:48.420Z,97.78
2018-04-14T23:43:16.221Z,98.19
2018-04-14T23:45:43.821Z,99.09
2018-04-14T23:48:11.353Z,98.27
2018-04-14T23:50:39.144Z,98.28
2018-04-14T23:53:06.710Z,97.23
2018-04-14T23:55:34.400Z,98.26
2018-04-14T23:58:02.077Z,96.91
